sensor_id;sensor_type;location;lat;lon;timestamp;temperature;humidity
62797;DHT22;48839;48.546;-4.178;2022-07-03T00:00:19;11.50;99.90
62797;DHT22;48839;48.546;-4.178;2022-07-03T00:02:44;11.70;99.90
62797;DHT22;48839;48.546;-4.178;2022-07-03T00:05:10;11.60;99.90
62797;DHT22;48839;48.546;-4.178;2022-07-03T00:07:37;11.30;99.90
62797;DHT22;48839;48.546;-4.178;2022-07-03T00:10:04;11.30;99.90
62797;DHT22;48839;48.546;-4.178;2022-07-03T00:12:30;11.50;99.90
62797;DHT22;48839;48.546;-4.178;2022-07-03T00:14:56;11.40;99.90
62797;DHT22;48839;48.546;-4.178;2022-07-03T00:17:21;11.20;99.90
62797;DHT22;48839;48.546;-4.178;2022-07-03T00:19:47;11.60;99.90
62797;DHT22;48839;48.546;-4.178;2022-07-03T00:22:13;11.60;99.90
62797;DHT22;48839;48.546;-4.178;2022-07-03T00:24:44;11.70;99.90
62797;DHT22;48839;48.546;-4.178;2022-07-03T00:27:14;11.50;99.90
62797;DHT22;48839;48.546;-4.178;2022-07-03T00:29:42;11.60;99.90
62797;DHT22;48839;48.546;-4.178;2022-07-03T00:32:13;11.80;99.90
62797;DHT22;48839;48.546;-4.178;2022-07-03T00:34:39;11.80;99.90
62797;DHT22;48839;48.546;-4.178;2022-07-03T00:37:09;11.80;99.90
62797;DHT22;48839;48.546;-4.178;2022-07-03T00:39:37;11.50;99.90
62797;DHT22;48839;48.546;-4.178;2022-07-03T00:42:04;11.70;99.90
62797;DHT22;48839;48.546;-4.178;2022-07-03T00:44:55;11.90;99.90
62797;DHT22;48839;48.546;-4.178;2022-07-03T00:47:21;11.90;99.90
62797;DHT22;48839;48.546;-4.178;2022-07-03T00:49:49;11.70;99.90
62797;DHT22;48839;48.546;-4.178;2022-07-03T00:52:16;11.80;99.90
62797;DHT22;48839;48.546;-4.178;2022-07-03T00:54:51;12.20;99.90
62797;DHT22;48839;48.546;-4.178;2022-07-03T00:57:17;12.20;99.90
62797;DHT22;48839;48.546;-4.178;2022-07-03T00:59:44;12.10;99.90
62797;DHT22;48839;48.546;-4.178;2022-07-03T01:02:27;12.10;99.90
62797;DHT22;48839;48.546;-4.178;2022-07-03T01:11:01;12.50;99.90
62797;DHT22;48839;48.546;-4.178;2022-07-03T01:18:48;12.60;99.90
62797;DHT22;48839;48.546;-4.178;2022-07-03T01:21:35;12.30;99.90
62797;DHT22;48839;48.546;-4.178;2022-07-03T01:26:45;12.40;99.90
62797;DHT22;48839;48.546;-4.178;2022-07-03T01:29:22;12.60;99.90
62797;DHT22;48839;48.546;-4.178;2022-07-03T01:31:53;12.50;99.90
62797;DHT22;48839;48.546;-4.178;2022-07-03T01:34:20;12.40;99.90
62797;DHT22;48839;48.546;-4.178;2022-07-03T01:36:47;12.30;99.90
62797;DHT22;48839;48.546;-4.178;2022-07-03T01:39:16;12.70;99.90
62797;DHT22;48839;48.546;-4.178;2022-07-03T01:41:45;12.60;99.90
62797;DHT22;48839;48.546;-4.178;2022-07-03T01:44:14;12.10;99.90
62797;DHT22;48839;48.546;-4.178;2022-07-03T01:46:41;12.10;99.90
62797;DHT22;48839;48.546;-4.178;2022-07-03T01:49:13;12.00;99.90
62797;DHT22;48839;48.546;-4.178;2022-07-03T01:51:39;12.00;99.90
62797;DHT22;48839;48.546;-4.178;2022-07-03T01:54:11;12.30;99.90
62797;DHT22;48839;48.546;-4.178;2022-07-03T01:56:37;11.90;99.90
62797;DHT22;48839;48.546;-4.178;2022-07-03T01:59:03;12.50;99.90
62797;DHT22;48839;48.546;-4.178;2022-07-03T02:04:28;12.20;99.90
62797;DHT22;48839;48.546;-4.178;2022-07-03T02:07:15;11.90;99.90
62797;DHT22;48839;48.546;-4.178;2022-07-03T02:10:02;11.80;99.90
62797;DHT22;48839;48.546;-4.178;2022-07-03T02:12:37;12.10;99.90
62797;DHT22;48839;48.546;-4.178;2022-07-03T02:15:06;11.80;99.90
62797;DHT22;48839;48.546;-4.178;2022-07-03T02:17:43;11.30;99.90
62797;DHT22;48839;48.546;-4.178;2022-07-03T02:20:10;12.40;99.90
62797;DHT22;48839;48.546;-4.178;2022-07-03T02:23:00;12.10;99.90
62797;DHT22;48839;48.546;-4.178;2022-07-03T02:25:33;11.70;99.90
62797;DHT22;48839;48.546;-4.178;2022-07-03T02:30:57;11.30;99.90
62797;DHT22;48839;48.546;-4.178;2022-07-03T02:33:30;12.10;99.90
62797;DHT22;48839;48.546;-4.178;2022-07-03T02:35:57;11.50;99.90
62797;DHT22;48839;48.546;-4.178;2022-07-03T02:38:23;11.40;99.90
62797;DHT22;48839;48.546;-4.178;2022-07-03T02:44:02;12.30;99.90
62797;DHT22;48839;48.546;-4.178;2022-07-03T02:52:12;11.40;99.90
62797;DHT22;48839;48.546;-4.178;2022-07-03T02:54:46;11.50;99.90
62797;DHT22;48839;48.546;-4.178;2022-07-03T02:57:16;12.00;99.90
62797;DHT22;48839;48.546;-4.178;2022-07-03T03:00:00;12.50;99.90
62797;DHT22;48839;48.546;-4.178;2022-07-03T03:05:23;11.60;99.90
62797;DHT22;48839;48.546;-4.178;2022-07-03T03:10:38;12.30;99.90
62797;DHT22;48839;48.546;-4.178;2022-07-03T03:13:14;11.70;99.90
62797;DHT22;48839;48.546;-4.178;2022-07-03T03:16:06;12.10;99.90
62797;DHT22;48839;48.546;-4.178;2022-07-03T03:18:40;12.80;99.90
62797;DHT22;48839;48.546;-4.178;2022-07-03T03:21:09;13.10;99.90
62797;DHT22;48839;48.546;-4.178;2022-07-03T03:23:46;12.00;99.90
62797;DHT22;48839;48.546;-4.178;2022-07-03T03:26:20;13.00;99.90
62797;DHT22;48839;48.546;-4.178;2022-07-03T03:28:47;13.20;99.90
62797;DHT22;48839;48.546;-4.178;2022-07-03T03:31:13;12.00;99.90
62797;DHT22;48839;48.546;-4.178;2022-07-03T03:33:41;12.90;99.90
62797;DHT22;48839;48.546;-4.178;2022-07-03T03:36:11;12.00;99.90
62797;DHT22;48839;48.546;-4.178;2022-07-03T03:38:38;13.10;99.90
62797;DHT22;48839;48.546;-4.178;2022-07-03T03:41:05;13.20;99.90
62797;DHT22;48839;48.546;-4.178;2022-07-03T03:43:31;12.10;99.90
62797;DHT22;48839;48.546;-4.178;2022-07-03T03:45:58;12.10;99.90
62797;DHT22;48839;48.546;-4.178;2022-07-03T03:48:28;12.10;99.90
62797;DHT22;48839;48.546;-4.178;2022-07-03T03:50:57;13.30;99.90
62797;DHT22;48839;48.546;-4.178;2022-07-03T03:53:27;12.20;99.90
62797;DHT22;48839;48.546;-4.178;2022-07-03T03:56:11;13.30;99.90
62797;DHT22;48839;48.546;-4.178;2022-07-03T03:58:38;12.00;99.90
62797;DHT22;48839;48.546;-4.178;2022-07-03T04:01:06;13.20;99.90
62797;DHT22;48839;48.546;-4.178;2022-07-03T04:03:33;12.90;99.90
62797;DHT22;48839;48.546;-4.178;2022-07-03T04:05:59;13.30;99.90
62797;DHT22;48839;48.546;-4.178;2022-07-03T04:08:26;12.10;99.90
62797;DHT22;48839;48.546;-4.178;2022-07-03T04:10:52;12.00;99.90
62797;DHT22;48839;48.546;-4.178;2022-07-03T04:13:18;13.00;99.90
62797;DHT22;48839;48.546;-4.178;2022-07-03T04:15:48;12.30;99.90
62797;DHT22;48839;48.546;-4.178;2022-07-03T04:18:13;12.70;99.90
62797;DHT22;48839;48.546;-4.178;2022-07-03T04:20:39;12.10;99.90
62797;DHT22;48839;48.546;-4.178;2022-07-03T04:23:05;13.30;99.90
62797;DHT22;48839;48.546;-4.178;2022-07-03T04:25:31;13.60;99.90
62797;DHT22;48839;48.546;-4.178;2022-07-03T04:27:57;12.20;99.90
62797;DHT22;48839;48.546;-4.178;2022-07-03T04:30:23;12.20;99.90
62797;DHT22;48839;48.546;-4.178;2022-07-03T04:32:50;12.90;99.90
62797;DHT22;48839;48.546;-4.178;2022-07-03T04:35:16;12.30;99.90
62797;DHT22;48839;48.546;-4.178;2022-07-03T04:37:42;12.30;99.90
62797;DHT22;48839;48.546;-4.178;2022-07-03T04:40:09;12.20;99.90
62797;DHT22;48839;48.546;-4.178;2022-07-03T04:42:35;12.20;99.90
62797;DHT22;48839;48.546;-4.178;2022-07-03T04:45:01;13.50;99.90
62797;DHT22;48839;48.546;-4.178;2022-07-03T04:47:27;12.90;99.90
62797;DHT22;48839;48.546;-4.178;2022-07-03T04:49:52;12.70;99.90
62797;DHT22;48839;48.546;-4.178;2022-07-03T04:52:18;13.60;99.90
62797;DHT22;48839;48.546;-4.178;2022-07-03T04:54:44;12.50;99.90
62797;DHT22;48839;48.546;-4.178;2022-07-03T04:57:09;12.70;99.90
62797;DHT22;48839;48.546;-4.178;2022-07-03T04:59:35;12.60;99.90
62797;DHT22;48839;48.546;-4.178;2022-07-03T05:02:01;12.60;99.90
62797;DHT22;48839;48.546;-4.178;2022-07-03T05:04:26;13.80;99.90
62797;DHT22;48839;48.546;-4.178;2022-07-03T05:06:52;14.10;99.90
62797;DHT22;48839;48.546;-4.178;2022-07-03T05:09:18;12.70;99.90
62797;DHT22;48839;48.546;-4.178;2022-07-03T05:11:44;13.20;99.90
62797;DHT22;48839;48.546;-4.178;2022-07-03T05:14:10;12.70;99.90
62797;DHT22;48839;48.546;-4.178;2022-07-03T05:16:35;12.70;99.90
62797;DHT22;48839;48.546;-4.178;2022-07-03T05:19:01;13.60;99.90
62797;DHT22;48839;48.546;-4.178;2022-07-03T05:21:27;12.90;99.90
62797;DHT22;48839;48.546;-4.178;2022-07-03T05:23:52;13.40;99.90
62797;DHT22;48839;48.546;-4.178;2022-07-03T05:26:18;13.80;99.90
62797;DHT22;48839;48.546;-4.178;2022-07-03T05:28:43;13.80;99.90
62797;DHT22;48839;48.546;-4.178;2022-07-03T05:31:10;13.50;99.90
62797;DHT22;48839;48.546;-4.178;2022-07-03T05:33:36;13.60;99.90
62797;DHT22;48839;48.546;-4.178;2022-07-03T05:36:03;13.10;99.90
62797;DHT22;48839;48.546;-4.178;2022-07-03T05:38:30;14.60;99.90
62797;DHT22;48839;48.546;-4.178;2022-07-03T05:41:14;13.40;99.90
62797;DHT22;48839;48.546;-4.178;2022-07-03T05:43:39;13.10;99.90
62797;DHT22;48839;48.546;-4.178;2022-07-03T05:46:05;14.00;99.90
62797;DHT22;48839;48.546;-4.178;2022-07-03T05:48:31;14.50;99.90
62797;DHT22;48839;48.546;-4.178;2022-07-03T05:50:56;13.40;99.90
62797;DHT22;48839;48.546;-4.178;2022-07-03T05:53:22;13.30;99.90
62797;DHT22;48839;48.546;-4.178;2022-07-03T05:55:48;13.50;99.90
62797;DHT22;48839;48.546;-4.178;2022-07-03T05:58:15;14.80;99.90
62797;DHT22;48839;48.546;-4.178;2022-07-03T06:00:41;14.60;99.90
62797;DHT22;48839;48.546;-4.178;2022-07-03T06:03:06;13.70;99.90
62797;DHT22;48839;48.546;-4.178;2022-07-03T06:05:32;14.80;99.90
62797;DHT22;48839;48.546;-4.178;2022-07-03T06:07:58;14.90;99.90
62797;DHT22;48839;48.546;-4.178;2022-07-03T06:10:25;14.30;99.90
62797;DHT22;48839;48.546;-4.178;2022-07-03T06:12:50;15.00;99.90
62797;DHT22;48839;48.546;-4.178;2022-07-03T06:15:16;13.90;99.90
62797;DHT22;48839;48.546;-4.178;2022-07-03T06:17:42;15.30;99.90
62797;DHT22;48839;48.546;-4.178;2022-07-03T06:20:09;14.40;99.90
62797;DHT22;48839;48.546;-4.178;2022-07-03T06:22:35;14.60;99.90
62797;DHT22;48839;48.546;-4.178;2022-07-03T06:25:01;15.10;99.90
62797;DHT22;48839;48.546;-4.178;2022-07-03T06:27:27;16.00;99.90
62797;DHT22;48839;48.546;-4.178;2022-07-03T06:29:53;16.00;99.90
62797;DHT22;48839;48.546;-4.178;2022-07-03T06:32:19;15.10;99.90
62797;DHT22;48839;48.546;-4.178;2022-07-03T06:34:45;14.80;99.90
62797;DHT22;48839;48.546;-4.178;2022-07-03T06:37:12;15.10;99.90
62797;DHT22;48839;48.546;-4.178;2022-07-03T06:39:38;15.30;99.90
62797;DHT22;48839;48.546;-4.178;2022-07-03T06:42:04;16.10;99.90
62797;DHT22;48839;48.546;-4.178;2022-07-03T06:44:30;17.50;99.90
62797;DHT22;48839;48.546;-4.178;2022-07-03T06:46:55;16.90;99.90
62797;DHT22;48839;48.546;-4.178;2022-07-03T06:49:22;21.60;99.90
62797;DHT22;48839;48.546;-4.178;2022-07-03T06:51:48;22.90;99.90
62797;DHT22;48839;48.546;-4.178;2022-07-03T06:54:14;23.70;99.90
62797;DHT22;48839;48.546;-4.178;2022-07-03T06:56:39;23.70;99.90
62797;DHT22;48839;48.546;-4.178;2022-07-03T06:59:05;23.00;99.90
62797;DHT22;48839;48.546;-4.178;2022-07-03T07:01:31;23.30;99.90
62797;DHT22;48839;48.546;-4.178;2022-07-03T07:03:57;23.50;99.90
62797;DHT22;48839;48.546;-4.178;2022-07-03T07:06:23;24.00;99.90
62797;DHT22;48839;48.546;-4.178;2022-07-03T07:08:48;24.50;99.90
62797;DHT22;48839;48.546;-4.178;2022-07-03T07:11:14;23.40;99.90
62797;DHT22;48839;48.546;-4.178;2022-07-03T07:13:40;22.40;99.90
62797;DHT22;48839;48.546;-4.178;2022-07-03T07:16:06;22.10;99.90
62797;DHT22;48839;48.546;-4.178;2022-07-03T07:18:32;21.70;99.90
62797;DHT22;48839;48.546;-4.178;2022-07-03T07:20:57;21.90;99.90
62797;DHT22;48839;48.546;-4.178;2022-07-03T07:23:23;21.90;99.90
62797;DHT22;48839;48.546;-4.178;2022-07-03T07:25:49;21.20;99.90
62797;DHT22;48839;48.546;-4.178;2022-07-03T07:28:14;21.70;99.90
62797;DHT22;48839;48.546;-4.178;2022-07-03T07:30:40;21.30;99.90
62797;DHT22;48839;48.546;-4.178;2022-07-03T07:33:07;20.90;99.90
62797;DHT22;48839;48.546;-4.178;2022-07-03T07:35:32;20.00;99.90
62797;DHT22;48839;48.546;-4.178;2022-07-03T07:37:58;19.30;99.90
62797;DHT22;48839;48.546;-4.178;2022-07-03T07:40:24;19.10;99.90
62797;DHT22;48839;48.546;-4.178;2022-07-03T07:42:50;18.80;99.90
62797;DHT22;48839;48.546;-4.178;2022-07-03T07:45:15;18.20;99.90
62797;DHT22;48839;48.546;-4.178;2022-07-03T07:47:41;18.60;99.90
62797;DHT22;48839;48.546;-4.178;2022-07-03T07:50:07;18.50;99.90
62797;DHT22;48839;48.546;-4.178;2022-07-03T07:52:33;18.20;99.90
62797;DHT22;48839;48.546;-4.178;2022-07-03T07:54:58;18.10;99.90
62797;DHT22;48839;48.546;-4.178;2022-07-03T07:57:24;17.90;99.90
62797;DHT22;48839;48.546;-4.178;2022-07-03T07:59:50;18.00;99.90
62797;DHT22;48839;48.546;-4.178;2022-07-03T08:02:15;19.30;99.90
62797;DHT22;48839;48.546;-4.178;2022-07-03T08:04:59;20.70;99.90
62797;DHT22;48839;48.546;-4.178;2022-07-03T08:07:43;20.90;99.90
62797;DHT22;48839;48.546;-4.178;2022-07-03T08:10:09;20.50;99.90
62797;DHT22;48839;48.546;-4.178;2022-07-03T08:12:34;21.10;99.90
62797;DHT22;48839;48.546;-4.178;2022-07-03T08:15:00;20.60;99.90
62797;DHT22;48839;48.546;-4.178;2022-07-03T08:17:26;20.50;99.90
62797;DHT22;48839;48.546;-4.178;2022-07-03T08:19:51;20.60;99.90
62797;DHT22;48839;48.546;-4.178;2022-07-03T08:22:17;20.10;99.90
62797;DHT22;48839;48.546;-4.178;2022-07-03T08:24:43;20.40;99.90
62797;DHT22;48839;48.546;-4.178;2022-07-03T08:27:08;20.40;99.90
62797;DHT22;48839;48.546;-4.178;2022-07-03T08:29:34;20.80;99.90
62797;DHT22;48839;48.546;-4.178;2022-07-03T08:32:00;21.10;99.90
62797;DHT22;48839;48.546;-4.178;2022-07-03T08:34:25;21.20;99.90
62797;DHT22;48839;48.546;-4.178;2022-07-03T08:36:51;20.90;99.90
62797;DHT22;48839;48.546;-4.178;2022-07-03T08:39:17;21.60;99.90
62797;DHT22;48839;48.546;-4.178;2022-07-03T08:41:43;21.70;99.90
62797;DHT22;48839;48.546;-4.178;2022-07-03T08:44:11;22.20;99.90
62797;DHT22;48839;48.546;-4.178;2022-07-03T08:46:38;22.10;99.90
62797;DHT22;48839;48.546;-4.178;2022-07-03T08:49:06;21.00;99.90
62797;DHT22;48839;48.546;-4.178;2022-07-03T08:51:32;20.30;99.90
62797;DHT22;48839;48.546;-4.178;2022-07-03T08:54:01;20.00;99.90
62797;DHT22;48839;48.546;-4.178;2022-07-03T08:56:27;19.60;99.90
62797;DHT22;48839;48.546;-4.178;2022-07-03T08:58:55;19.60;99.90
62797;DHT22;48839;48.546;-4.178;2022-07-03T09:01:22;19.80;99.90
62797;DHT22;48839;48.546;-4.178;2022-07-03T09:03:48;19.40;99.90
62797;DHT22;48839;48.546;-4.178;2022-07-03T09:06:16;19.20;99.90
62797;DHT22;48839;48.546;-4.178;2022-07-03T09:08:43;19.20;99.90
62797;DHT22;48839;48.546;-4.178;2022-07-03T09:11:10;20.10;99.90
62797;DHT22;48839;48.546;-4.178;2022-07-03T09:13:35;21.20;99.90
62797;DHT22;48839;48.546;-4.178;2022-07-03T09:16:01;21.10;99.90
62797;DHT22;48839;48.546;-4.178;2022-07-03T09:18:41;20.10;99.90
62797;DHT22;48839;48.546;-4.178;2022-07-03T09:21:07;19.50;99.90
62797;DHT22;48839;48.546;-4.178;2022-07-03T09:23:42;19.40;99.90
62797;DHT22;48839;48.546;-4.178;2022-07-03T09:26:18;19.30;99.90
62797;DHT22;48839;48.546;-4.178;2022-07-03T09:28:54;19.50;99.90
62797;DHT22;48839;48.546;-4.178;2022-07-03T09:31:31;20.30;99.90
62797;DHT22;48839;48.546;-4.178;2022-07-03T09:34:04;20.40;99.90
62797;DHT22;48839;48.546;-4.178;2022-07-03T09:36:43;19.80;99.90
62797;DHT22;48839;48.546;-4.178;2022-07-03T09:39:27;19.50;99.90
62797;DHT22;48839;48.546;-4.178;2022-07-03T09:42:04;19.30;99.90
62797;DHT22;48839;48.546;-4.178;2022-07-03T09:47:13;19.10;99.90
62797;DHT22;48839;48.546;-4.178;2022-07-03T09:49:56;19.20;99.90
62797;DHT22;48839;48.546;-4.178;2022-07-03T09:54:59;19.60;99.90
62797;DHT22;48839;48.546;-4.178;2022-07-03T09:57:29;19.80;99.90
62797;DHT22;48839;48.546;-4.178;2022-07-03T10:00:33;19.60;99.90
62797;DHT22;48839;48.546;-4.178;2022-07-03T10:03:06;19.80;99.90
62797;DHT22;48839;48.546;-4.178;2022-07-03T10:05:39;19.60;99.90
62797;DHT22;48839;48.546;-4.178;2022-07-03T10:08:08;19.60;99.90
62797;DHT22;48839;48.546;-4.178;2022-07-03T10:10:39;19.70;99.90
62797;DHT22;48839;48.546;-4.178;2022-07-03T10:13:05;19.40;99.90
62797;DHT22;48839;48.546;-4.178;2022-07-03T10:15:33;19.20;99.90
62797;DHT22;48839;48.546;-4.178;2022-07-03T10:18:04;19.10;99.90
62797;DHT22;48839;48.546;-4.178;2022-07-03T10:23:09;19.90;99.90
62797;DHT22;48839;48.546;-4.178;2022-07-03T10:25:35;20.30;99.90
62797;DHT22;48839;48.546;-4.178;2022-07-03T10:28:02;20.20;99.90
62797;DHT22;48839;48.546;-4.178;2022-07-03T10:30:28;19.50;99.90
62797;DHT22;48839;48.546;-4.178;2022-07-03T10:32:55;19.10;99.90
62797;DHT22;48839;48.546;-4.178;2022-07-03T10:35:33;19.20;99.90
62797;DHT22;48839;48.546;-4.178;2022-07-03T10:40:37;20.40;99.90
62797;DHT22;48839;48.546;-4.178;2022-07-03T10:43:33;20.50;99.90
62797;DHT22;48839;48.546;-4.178;2022-07-03T10:46:22;21.40;99.90
62797;DHT22;48839;48.546;-4.178;2022-07-03T10:51:20;21.80;99.90
62797;DHT22;48839;48.546;-4.178;2022-07-03T10:53:47;21.60;99.90
62797;DHT22;48839;48.546;-4.178;2022-07-03T10:56:13;20.90;99.90
62797;DHT22;48839;48.546;-4.178;2022-07-03T10:58:56;20.30;99.90
62797;DHT22;48839;48.546;-4.178;2022-07-03T11:01:30;20.60;99.90
62797;DHT22;48839;48.546;-4.178;2022-07-03T11:03:59;20.70;99.90
62797;DHT22;48839;48.546;-4.178;2022-07-03T11:07:12;20.90;99.90
62797;DHT22;48839;48.546;-4.178;2022-07-03T11:09:37;20.80;99.90
62797;DHT22;48839;48.546;-4.178;2022-07-03T11:12:03;20.60;99.90
62797;DHT22;48839;48.546;-4.178;2022-07-03T11:14:29;20.60;99.90
62797;DHT22;48839;48.546;-4.178;2022-07-03T11:17:20;20.10;99.90
62797;DHT22;48839;48.546;-4.178;2022-07-03T11:19:50;19.90;99.90
62797;DHT22;48839;48.546;-4.178;2022-07-03T11:22:49;19.50;99.90
62797;DHT22;48839;48.546;-4.178;2022-07-03T11:25:17;19.90;99.90
62797;DHT22;48839;48.546;-4.178;2022-07-03T11:27:43;20.30;99.90
62797;DHT22;48839;48.546;-4.178;2022-07-03T11:30:09;20.90;99.90
62797;DHT22;48839;48.546;-4.178;2022-07-03T11:32:54;20.80;99.90
62797;DHT22;48839;48.546;-4.178;2022-07-03T11:38:27;20.10;99.90
62797;DHT22;48839;48.546;-4.178;2022-07-03T11:40:55;20.50;99.90
62797;DHT22;48839;48.546;-4.178;2022-07-03T11:43:21;19.80;99.90
62797;DHT22;48839;48.546;-4.178;2022-07-03T11:45:47;19.90;99.90
62797;DHT22;48839;48.546;-4.178;2022-07-03T11:48:15;19.80;99.90
62797;DHT22;48839;48.546;-4.178;2022-07-03T11:50:44;20.30;99.90
62797;DHT22;48839;48.546;-4.178;2022-07-03T11:53:16;20.10;99.90
62797;DHT22;48839;48.546;-4.178;2022-07-03T11:55:53;20.40;99.90
62797;DHT22;48839;48.546;-4.178;2022-07-03T11:58:19;20.80;99.90
62797;DHT22;48839;48.546;-4.178;2022-07-03T12:00:45;20.30;99.90
62797;DHT22;48839;48.546;-4.178;2022-07-03T12:03:29;20.40;99.90
62797;DHT22;48839;48.546;-4.178;2022-07-03T12:05:57;20.30;99.90
62797;DHT22;48839;48.546;-4.178;2022-07-03T12:08:28;20.30;99.90
62797;DHT22;48839;48.546;-4.178;2022-07-03T12:13:24;20.30;99.90
62797;DHT22;48839;48.546;-4.178;2022-07-03T12:15:51;19.90;99.90
62797;DHT22;48839;48.546;-4.178;2022-07-03T12:18:16;20.30;99.90
62797;DHT22;48839;48.546;-4.178;2022-07-03T12:20:42;20.00;99.90
62797;DHT22;48839;48.546;-4.178;2022-07-03T12:23:09;19.80;99.90
62797;DHT22;48839;48.546;-4.178;2022-07-03T12:25:39;19.90;99.90
62797;DHT22;48839;48.546;-4.178;2022-07-03T12:28:08;20.10;99.90
62797;DHT22;48839;48.546;-4.178;2022-07-03T12:30:34;20.00;99.90
62797;DHT22;48839;48.546;-4.178;2022-07-03T12:33:01;19.60;99.90
62797;DHT22;48839;48.546;-4.178;2022-07-03T12:35:27;19.00;99.90
62797;DHT22;48839;48.546;-4.178;2022-07-03T12:37:53;18.90;99.90
62797;DHT22;48839;48.546;-4.178;2022-07-03T12:40:19;19.40;99.90
62797;DHT22;48839;48.546;-4.178;2022-07-03T12:42:47;19.30;99.90
62797;DHT22;48839;48.546;-4.178;2022-07-03T12:45:14;19.30;99.90
62797;DHT22;48839;48.546;-4.178;2022-07-03T12:47:40;19.60;99.90
62797;DHT22;48839;48.546;-4.178;2022-07-03T12:50:08;19.50;99.90
62797;DHT22;48839;48.546;-4.178;2022-07-03T12:52:41;20.00;99.90
62797;DHT22;48839;48.546;-4.178;2022-07-03T12:55:22;20.20;99.90
62797;DHT22;48839;48.546;-4.178;2022-07-03T12:57:48;19.70;99.90
62797;DHT22;48839;48.546;-4.178;2022-07-03T13:00:42;19.60;99.90
62797;DHT22;48839;48.546;-4.178;2022-07-03T13:03:26;19.50;99.90
62797;DHT22;48839;48.546;-4.178;2022-07-03T13:05:52;19.60;99.90
62797;DHT22;48839;48.546;-4.178;2022-07-03T13:08:18;19.60;99.90
62797;DHT22;48839;48.546;-4.178;2022-07-03T13:10:44;20.30;99.90
62797;DHT22;48839;48.546;-4.178;2022-07-03T13:13:09;21.00;99.90
62797;DHT22;48839;48.546;-4.178;2022-07-03T13:15:35;20.10;99.90
62797;DHT22;48839;48.546;-4.178;2022-07-03T13:18:01;20.40;99.90
62797;DHT22;48839;48.546;-4.178;2022-07-03T13:20:32;20.50;99.90
62797;DHT22;48839;48.546;-4.178;2022-07-03T13:23:00;20.00;99.90
62797;DHT22;48839;48.546;-4.178;2022-07-03T13:25:26;20.50;99.90
62797;DHT22;48839;48.546;-4.178;2022-07-03T13:27:52;21.60;99.90
62797;DHT22;48839;48.546;-4.178;2022-07-03T13:30:19;21.50;99.90
62797;DHT22;48839;48.546;-4.178;2022-07-03T13:32:45;20.50;97.50
62797;DHT22;48839;48.546;-4.178;2022-07-03T13:35:12;19.70;99.90
62797;DHT22;48839;48.546;-4.178;2022-07-03T13:37:37;20.10;99.90
62797;DHT22;48839;48.546;-4.178;2022-07-03T13:40:04;20.40;99.90
62797;DHT22;48839;48.546;-4.178;2022-07-03T13:42:30;19.70;99.90
62797;DHT22;48839;48.546;-4.178;2022-07-03T13:44:56;20.00;99.90
62797;DHT22;48839;48.546;-4.178;2022-07-03T13:47:22;19.70;99.90
62797;DHT22;48839;48.546;-4.178;2022-07-03T13:49:47;19.80;99.90
62797;DHT22;48839;48.546;-4.178;2022-07-03T13:52:13;19.80;99.90
62797;DHT22;48839;48.546;-4.178;2022-07-03T13:54:39;20.00;99.90
62797;DHT22;48839;48.546;-4.178;2022-07-03T13:57:05;19.60;99.90
62797;DHT22;48839;48.546;-4.178;2022-07-03T13:59:30;19.80;99.90
62797;DHT22;48839;48.546;-4.178;2022-07-03T14:01:59;19.70;99.90
62797;DHT22;48839;48.546;-4.178;2022-07-03T14:04:26;19.40;99.90
62797;DHT22;48839;48.546;-4.178;2022-07-03T14:06:52;19.70;99.90
62797;DHT22;48839;48.546;-4.178;2022-07-03T14:09:18;19.90;99.90
62797;DHT22;48839;48.546;-4.178;2022-07-03T14:11:44;19.80;90.00
62797;DHT22;48839;48.546;-4.178;2022-07-03T14:14:10;19.20;99.90
62797;DHT22;48839;48.546;-4.178;2022-07-03T14:16:36;19.90;99.90
62797;DHT22;48839;48.546;-4.178;2022-07-03T14:19:03;19.70;48.80
62797;DHT22;48839;48.546;-4.178;2022-07-03T14:21:29;19.80;16.70
62797;DHT22;48839;48.546;-4.178;2022-07-03T14:23:55;19.00;4.60
62797;DHT22;48839;48.546;-4.178;2022-07-03T14:26:20;20.20;99.90
62797;DHT22;48839;48.546;-4.178;2022-07-03T14:29:06;20.20;99.90
62797;DHT22;48839;48.546;-4.178;2022-07-03T14:31:55;19.30;99.90
62797;DHT22;48839;48.546;-4.178;2022-07-03T14:34:40;19.90;99.90
62797;DHT22;48839;48.546;-4.178;2022-07-03T14:37:07;20.50;99.90
62797;DHT22;48839;48.546;-4.178;2022-07-03T14:39:32;19.90;93.90
62797;DHT22;48839;48.546;-4.178;2022-07-03T14:41:58;19.70;99.90
62797;DHT22;48839;48.546;-4.178;2022-07-03T14:44:23;19.60;68.30
62797;DHT22;48839;48.546;-4.178;2022-07-03T14:46:52;19.70;30.30
62797;DHT22;48839;48.546;-4.178;2022-07-03T14:49:19;20.50;99.90
62797;DHT22;48839;48.546;-4.178;2022-07-03T14:51:45;19.80;14.70
62797;DHT22;48839;48.546;-4.178;2022-07-03T14:54:11;19.90;31.90
62797;DHT22;48839;48.546;-4.178;2022-07-03T14:56:52;20.30;1.00
62797;DHT22;48839;48.546;-4.178;2022-07-03T14:59:43;19.90;55.50
62797;DHT22;48839;48.546;-4.178;2022-07-03T15:02:19;19.50;1.00
62797;DHT22;48839;48.546;-4.178;2022-07-03T15:05:05;19.10;1.00
62797;DHT22;48839;48.546;-4.178;2022-07-03T15:07:42;19.20;1.00
62797;DHT22;48839;48.546;-4.178;2022-07-03T15:10:09;19.80;9.00
62797;DHT22;48839;48.546;-4.178;2022-07-03T15:12:51;19.80;1.00
62797;DHT22;48839;48.546;-4.178;2022-07-03T15:15:19;20.30;99.90
62797;DHT22;48839;48.546;-4.178;2022-07-03T15:17:50;19.80;99.90
62797;DHT22;48839;48.546;-4.178;2022-07-03T15:20:17;19.70;99.90
62797;DHT22;48839;48.546;-4.178;2022-07-03T15:22:44;19.60;99.90
62797;DHT22;48839;48.546;-4.178;2022-07-03T15:25:12;19.00;99.90
62797;DHT22;48839;48.546;-4.178;2022-07-03T15:27:38;19.00;99.90
62797;DHT22;48839;48.546;-4.178;2022-07-03T15:30:06;19.30;99.90
62797;DHT22;48839;48.546;-4.178;2022-07-03T15:32:33;19.20;99.90
62797;DHT22;48839;48.546;-4.178;2022-07-03T15:34:58;19.30;99.90
62797;DHT22;48839;48.546;-4.178;2022-07-03T15:43:13;18.20;99.90
62797;DHT22;48839;48.546;-4.178;2022-07-03T15:45:50;18.90;99.90
62797;DHT22;48839;48.546;-4.178;2022-07-03T15:48:43;18.70;99.90
62797;DHT22;48839;48.546;-4.178;2022-07-03T15:51:18;18.60;99.90
62797;DHT22;48839;48.546;-4.178;2022-07-03T15:53:49;18.40;99.90
62797;DHT22;48839;48.546;-4.178;2022-07-03T15:56:19;17.80;99.90
62797;DHT22;48839;48.546;-4.178;2022-07-03T15:58:50;18.10;99.90
62797;DHT22;48839;48.546;-4.178;2022-07-03T16:01:19;18.00;99.90
62797;DHT22;48839;48.546;-4.178;2022-07-03T16:04:17;17.90;99.90
62797;DHT22;48839;48.546;-4.178;2022-07-03T16:06:46;18.30;99.90
62797;DHT22;48839;48.546;-4.178;2022-07-03T16:09:13;17.80;99.90
62797;DHT22;48839;48.546;-4.178;2022-07-03T16:11:38;18.20;99.90
62797;DHT22;48839;48.546;-4.178;2022-07-03T16:14:05;18.40;99.90
62797;DHT22;48839;48.546;-4.178;2022-07-03T16:16:31;18.10;1.00
62797;DHT22;48839;48.546;-4.178;2022-07-03T16:19:01;17.80;73.60
62797;DHT22;48839;48.546;-4.178;2022-07-03T16:21:28;18.00;90.40
62797;DHT22;48839;48.546;-4.178;2022-07-03T16:23:55;18.40;96.20
62797;DHT22;48839;48.546;-4.178;2022-07-03T16:26:22;18.40;60.80
62797;DHT22;48839;48.546;-4.178;2022-07-03T16:28:48;18.30;99.90